General Hazi Aslanov — UEJC — position and weather

sailwx.info

Track history (hours):
 
Tides and Currents Weather Stations Pressure Air Temp Water Temp Dewpoint Dewpoint Depression Visibility Wind Speed Wind Dir Waves Ship Positions

General Hazi Aslanov

Last reported at 2017-Oct-15 00:54 UTC. Time now 2017-Oct-17 22:35 UTC.
Position N 45°30' E 036°44'.

Length 139 m; draft 3.2 m.

Type: Tanker. MMSI: 273430870.

Date/timePositionNaut miles runAvg speedWind from/ knotsBaromVisibWave heightAir tempDewpointWater temp
2017-Oct-15 00:54N 45°30' E 036°44'3 7.2
2017-Oct-15 00:30N 45°28' E 036°43'4 7.4
2017-Oct-15 00:00N 45°24' E 036°41'3 6.7
2017-Oct-14 23:30N 45°21' E 036°40'3 6.1
2017-Oct-14 23:00N 45°20' E 036°36'3 6.4
2017-Oct-14 22:31N 45°19' E 036°31'3 6.0
2017-Oct-14 21:59N 45°16' E 036°29'8 0.3
2017-Oct-13 14:15N 45°08' E 036°31'  
2017-Oct-10 16:28N 40°51' E 029°03'4 8.4
2017-Oct-10 15:57N 40°48' E 029°07'4 8.2
2017-Oct-10 15:30N 40°47' E 029°12'5 8.2
2017-Oct-10 14:56N 40°45' E 029°18'9 0.2
2017-Oct-08 13:03N 40°45' E 029°30'1 8.9
2017-Oct-08 12:57N 40°45' E 029°29'4 8.9
2017-Oct-08 12:30N 40°44' E 029°24'4 8.1
2017-Oct-08 12:00N 40°44' E 029°19'4 8.2
2017-Oct-08 11:29N 40°46' E 029°13'4 7.9
2017-Oct-08 10:59N 40°48' E 029°09'4 7.4
2017-Oct-08 10:30N 40°49' E 029°04'5 7.3
2017-Oct-08 09:53N 40°51' E 028°59'  
2017-Oct-05 04:11N 44°59' E 036°29'3 7.9
2017-Oct-05 03:47N 45°02' E 036°29'2 8.0
2017-Oct-05 03:30N 45°05' E 036°30'6 7.4
2017-Oct-05 02:40N 45°11' E 036°28'1 7.6
2017-Oct-05 02:30N 45°12' E 036°28'4 7.1
2017-Oct-05 02:00N 45°16' E 036°28'3 6.2
2017-Oct-05 01:27N 45°19' E 036°30'3 7.1
2017-Oct-05 01:00N 45°20' E 036°35'  
Track history (hours):
 
Tides and Currents Weather Stations Pressure Air Temp Water Temp Dewpoint Dewpoint Depression Visibility Wind Speed Wind Dir Waves Ship Positions

General Hazi Aslanov

Last reported at 2017-Oct-15 00:54 UTC. Time now 2017-Oct-17 22:35 UTC.
Position N 45°30' E 036°44'.

Length 139 m; draft 3.2 m.

Type: Tanker. MMSI: 273430870.

Date/timePositionNaut miles runAvg speedWind from/ knotsBaromVisibWave heightAir tempDewpointWater temp
2017-Oct-15 00:54N 45°30' E 036°44'3 7.2
2017-Oct-15 00:30N 45°28' E 036°43'4 7.4
2017-Oct-15 00:00N 45°24' E 036°41'3 6.7
2017-Oct-14 23:30N 45°21' E 036°40'3 6.1
2017-Oct-14 23:00N 45°20' E 036°36'3 6.4
2017-Oct-14 22:31N 45°19' E 036°31'3 6.0
2017-Oct-14 21:59N 45°16' E 036°29'8 0.3
2017-Oct-13 14:15N 45°08' E 036°31'  
2017-Oct-10 16:28N 40°51' E 029°03'4 8.4
2017-Oct-10 15:57N 40°48' E 029°07'4 8.2
2017-Oct-10 15:30N 40°47' E 029°12'5 8.2
2017-Oct-10 14:56N 40°45' E 029°18'9 0.2
2017-Oct-08 13:03N 40°45' E 029°30'1 8.9
2017-Oct-08 12:57N 40°45' E 029°29'4 8.9
2017-Oct-08 12:30N 40°44' E 029°24'4 8.1
2017-Oct-08 12:00N 40°44' E 029°19'4 8.2
2017-Oct-08 11:29N 40°46' E 029°13'4 7.9
2017-Oct-08 10:59N 40°48' E 029°09'4 7.4
2017-Oct-08 10:30N 40°49' E 029°04'5 7.3
2017-Oct-08 09:53N 40°51' E 028°59'  
2017-Oct-05 04:11N 44°59' E 036°29'3 7.9
2017-Oct-05 03:47N 45°02' E 036°29'2 8.0
2017-Oct-05 03:30N 45°05' E 036°30'6 7.4
2017-Oct-05 02:40N 45°11' E 036°28'1 7.6
2017-Oct-05 02:30N 45°12' E 036°28'4 7.1
2017-Oct-05 02:00N 45°16' E 036°28'3 6.2
2017-Oct-05 01:27N 45°19' E 036°30'3 7.1
2017-Oct-05 01:00N 45°20' E 036°35'  

Dump ship's entire track history